sensor_id;sensor_type;location;lat;lon;timestamp;pressure;altitude;pressure_sealevel;temperature;humidity
46534;BME280;32260;52.008;4.752;2023-05-11T00:02:23;101520.00;;;15.76;67.87
46534;BME280;32260;52.008;4.752;2023-05-11T00:04:49;101515.63;;;15.74;67.89
46534;BME280;32260;52.008;4.752;2023-05-11T00:07:15;101514.75;;;15.73;67.92
46534;BME280;32260;52.008;4.752;2023-05-11T00:09:41;101525.44;;;15.73;67.87
46534;BME280;32260;52.008;4.752;2023-05-11T00:12:07;101523.69;;;15.72;67.69
46534;BME280;32260;52.008;4.752;2023-05-11T00:14:33;101529.94;;;15.73;67.80
46534;BME280;32260;52.008;4.752;2023-05-11T00:17:00;101529.03;;;15.72;68.07
46534;BME280;32260;52.008;4.752;2023-05-11T00:19:26;101526.38;;;15.72;67.94
46534;BME280;32260;52.008;4.752;2023-05-11T00:21:52;101529.94;;;15.73;68.04
46534;BME280;32260;52.008;4.752;2023-05-11T00:24:18;101525.44;;;15.73;68.12
46534;BME280;32260;52.008;4.752;2023-05-11T00:26:45;101524.59;;;15.73;68.05
46534;BME280;32260;52.008;4.752;2023-05-11T00:29:11;101525.44;;;15.73;68.15
46534;BME280;32260;52.008;4.752;2023-05-11T00:31:37;101520.97;;;15.74;68.03
46534;BME280;32260;52.008;4.752;2023-05-11T00:34:03;101519.19;;;15.74;68.06
46534;BME280;32260;52.008;4.752;2023-05-11T00:36:29;101513.84;;;15.74;68.08
46534;BME280;32260;52.008;4.752;2023-05-11T00:38:55;101516.53;;;15.74;68.38
46534;BME280;32260;52.008;4.752;2023-05-11T00:41:21;101520.13;;;15.73;68.26
46534;BME280;32260;52.008;4.752;2023-05-11T00:43:48;101519.28;;;15.71;67.98
46534;BME280;32260;52.008;4.752;2023-05-11T00:46:14;101521.13;;;15.69;68.13
46534;BME280;32260;52.008;4.752;2023-05-11T00:48:40;101519.47;;;15.65;68.04
46534;BME280;32260;52.008;4.752;2023-05-11T00:51:06;101517.75;;;15.64;68.21
46534;BME280;32260;52.008;4.752;2023-05-11T00:53:32;101522.19;;;15.63;68.42
46534;BME280;32260;52.008;4.752;2023-05-11T00:55:58;101522.25;;;15.62;68.72
46534;BME280;32260;52.008;4.752;2023-05-11T00:58:25;101524.06;;;15.60;68.55
46534;BME280;32260;52.008;4.752;2023-05-11T01:00:51;101522.31;;;15.59;68.55
46534;BME280;32260;52.008;4.752;2023-05-11T01:03:18;101523.25;;;15.58;68.61
46534;BME280;32260;52.008;4.752;2023-05-11T01:05:56;101525.81;;;15.61;68.85
46534;BME280;32260;52.008;4.752;2023-05-11T01:08:36;101527.66;;;15.59;68.76
46534;BME280;32260;52.008;4.752;2023-05-11T01:12:13;101528.59;;;15.58;68.97
46534;BME280;32260;52.008;4.752;2023-05-11T01:14:02;101525.09;;;15.56;68.99
46534;BME280;32260;52.008;4.752;2023-05-11T01:16:34;101532.25;;;15.53;69.09
46534;BME280;32260;52.008;4.752;2023-05-11T01:19:11;101523.28;;;15.56;68.80
46534;BME280;32260;52.008;4.752;2023-05-11T01:21:44;101521.63;;;15.52;69.18
46534;BME280;32260;52.008;4.752;2023-05-11T01:25:50;101522.31;;;15.59;69.16
46534;BME280;32260;52.008;4.752;2023-05-11T01:27:30;101525.03;;;15.57;69.11
46534;BME280;32260;52.008;4.752;2023-05-11T01:30:25;101518.72;;;15.60;68.95
46534;BME280;32260;52.008;4.752;2023-05-11T01:32:56;101521.59;;;15.53;68.90
46534;BME280;32260;52.008;4.752;2023-05-11T01:35:25;101524.34;;;15.50;69.09
46534;BME280;32260;52.008;4.752;2023-05-11T01:37:55;101531.47;;;15.51;69.10
46534;BME280;32260;52.008;4.752;2023-05-11T01:40:25;101529.69;;;15.50;69.14
46534;BME280;32260;52.008;4.752;2023-05-11T01:43:13;101538.53;;;15.52;69.36
46534;BME280;32260;52.008;4.752;2023-05-11T01:45:46;101540.38;;;15.50;69.38
46534;BME280;32260;52.008;4.752;2023-05-11T01:48:18;101533.28;;;15.49;69.07
46534;BME280;32260;52.008;4.752;2023-05-11T01:50:45;101534.19;;;15.48;69.08
46534;BME280;32260;52.008;4.752;2023-05-11T01:53:15;101536.88;;;15.48;69.28
46534;BME280;32260;52.008;4.752;2023-05-11T01:55:43;101533.34;;;15.48;69.46
46534;BME280;32260;52.008;4.752;2023-05-11T01:58:13;101536.88;;;15.48;69.35
46534;BME280;32260;52.008;4.752;2023-05-11T02:00:40;101531.63;;;15.45;69.08
46534;BME280;32260;52.008;4.752;2023-05-11T02:03:08;101531.66;;;15.44;69.30
46534;BME280;32260;52.008;4.752;2023-05-11T02:05:36;101538.81;;;15.43;69.23
46534;BME280;32260;52.008;4.752;2023-05-11T02:08:05;101537.94;;;15.43;69.43
46534;BME280;32260;52.008;4.752;2023-05-11T02:10:32;101542.44;;;15.41;69.28
46534;BME280;32260;52.008;4.752;2023-05-11T02:12:59;101547.78;;;15.41;69.18
46534;BME280;32260;52.008;4.752;2023-05-11T02:15:28;101543.34;;;15.40;69.39
46534;BME280;32260;52.008;4.752;2023-05-11T02:17:56;101546.03;;;15.40;69.34
46534;BME280;32260;52.008;4.752;2023-05-11T02:20:23;101547.84;;;15.39;69.45
46534;BME280;32260;52.008;4.752;2023-05-11T02:22:52;101549.56;;;15.40;69.34
46534;BME280;32260;52.008;4.752;2023-05-11T02:25:19;101548.66;;;15.41;69.70
46534;BME280;32260;52.008;4.752;2023-05-11T02:27:45;101544.19;;;15.42;69.69
46534;BME280;32260;52.008;4.752;2023-05-11T02:30:12;101547.72;;;15.42;69.50
46534;BME280;32260;52.008;4.752;2023-05-11T02:32:45;101542.31;;;15.45;69.65
46534;BME280;32260;52.008;4.752;2023-05-11T02:35:17;101548.47;;;15.47;69.84
46534;BME280;32260;52.008;4.752;2023-05-11T02:37:46;101538.69;;;15.46;69.97
46534;BME280;32260;52.008;4.752;2023-05-11T02:40:16;101545.72;;;15.50;69.69
46534;BME280;32260;52.008;4.752;2023-05-11T02:42:44;101539.50;;;15.50;69.76
46534;BME280;32260;52.008;4.752;2023-05-11T02:45:15;101540.38;;;15.50;69.65
46534;BME280;32260;52.008;4.752;2023-05-11T02:47:46;101536.78;;;15.51;69.83
46534;BME280;32260;52.008;4.752;2023-05-11T02:50:13;101541.25;;;15.51;69.88
46534;BME280;32260;52.008;4.752;2023-05-11T02:52:44;101540.28;;;15.53;69.86
46534;BME280;32260;52.008;4.752;2023-05-11T02:55:13;101534.03;;;15.55;69.71
46534;BME280;32260;52.008;4.752;2023-05-11T02:57:40;101531.34;;;15.55;69.64
46534;BME280;32260;52.008;4.752;2023-05-11T03:00:07;101542.09;;;15.53;69.53
46534;BME280;32260;52.008;4.752;2023-05-11T03:02:35;101543.84;;;15.54;69.54
46534;BME280;32260;52.008;4.752;2023-05-11T03:05:01;101542.03;;;15.55;69.59
46534;BME280;32260;52.008;4.752;2023-05-11T03:07:27;101542.03;;;15.55;69.86
46534;BME280;32260;52.008;4.752;2023-05-11T03:09:53;101546.50;;;15.54;69.57
46534;BME280;32260;52.008;4.752;2023-05-11T03:12:20;101549.13;;;15.56;69.62
46534;BME280;32260;52.008;4.752;2023-05-11T03:14:47;101549.13;;;15.56;69.54
46534;BME280;32260;52.008;4.752;2023-05-11T03:17:14;101544.66;;;15.56;69.49
46534;BME280;32260;52.008;4.752;2023-05-11T03:19:41;101539.31;;;15.56;69.61
46534;BME280;32260;52.008;4.752;2023-05-11T03:22:09;101535.78;;;15.56;69.85
46534;BME280;32260;52.008;4.752;2023-05-11T03:24:36;101533.09;;;15.56;69.95
46534;BME280;32260;52.008;4.752;2023-05-11T03:27:04;101530.44;;;15.56;69.67
46534;BME280;32260;52.008;4.752;2023-05-11T03:29:32;101530.44;;;15.56;69.80
46534;BME280;32260;52.008;4.752;2023-05-11T03:31:59;101532.22;;;15.55;69.61
46534;BME280;32260;52.008;4.752;2023-05-11T03:34:25;101526.00;;;15.55;69.72
46534;BME280;32260;52.008;4.752;2023-05-11T03:36:52;101531.34;;;15.55;69.72
46534;BME280;32260;52.008;4.752;2023-05-11T03:39:20;101529.59;;;15.53;69.62
46534;BME280;32260;52.008;4.752;2023-05-11T03:41:49;101527.81;;;15.54;69.80
46534;BME280;32260;52.008;4.752;2023-05-11T03:44:17;101526.97;;;15.52;69.60
46534;BME280;32260;52.008;4.752;2023-05-11T03:46:47;101535.03;;;15.50;69.89
46534;BME280;32260;52.008;4.752;2023-05-11T03:49:15;101522.59;;;15.49;69.70
46534;BME280;32260;52.008;4.752;2023-05-11T03:51:43;101520.84;;;15.48;69.79
46534;BME280;32260;52.008;4.752;2023-05-11T03:54:09;101522.59;;;15.49;69.85
46534;BME280;32260;52.008;4.752;2023-05-11T03:56:37;101520.84;;;15.48;69.91
46534;BME280;32260;52.008;4.752;2023-05-11T03:59:04;101520.00;;;15.46;69.89
46534;BME280;32260;52.008;4.752;2023-05-11T04:01:31;101520.94;;;15.45;69.76
46534;BME280;32260;52.008;4.752;2023-05-11T04:03:57;101529.00;;;15.44;69.74
46534;BME280;32260;52.008;4.752;2023-05-11T04:06:23;101529.03;;;15.42;69.70
46534;BME280;32260;52.008;4.752;2023-05-11T04:08:50;101529.94;;;15.41;70.03
46534;BME280;32260;52.008;4.752;2023-05-11T04:11:16;101525.53;;;15.40;69.95
46534;BME280;32260;52.008;4.752;2023-05-11T04:13:42;101518.47;;;15.39;69.99
46534;BME280;32260;52.008;4.752;2023-05-11T04:16:08;101519.38;;;15.38;69.82
46534;BME280;32260;52.008;4.752;2023-05-11T04:18:34;101528.31;;;15.37;69.92
46534;BME280;32260;52.008;4.752;2023-05-11T04:21:00;101526.59;;;15.34;69.79
46534;BME280;32260;52.008;4.752;2023-05-11T04:23:26;101530.13;;;15.35;70.08
46534;BME280;32260;52.008;4.752;2023-05-11T04:25:54;101523.06;;;15.34;69.95
46534;BME280;32260;52.008;4.752;2023-05-11T04:28:21;101530.13;;;15.35;69.93
46534;BME280;32260;52.008;4.752;2023-05-11T04:30:52;101536.31;;;15.37;69.90
46534;BME280;32260;52.008;4.752;2023-05-11T04:33:19;101539.84;;;15.37;70.13
46534;BME280;32260;52.008;4.752;2023-05-11T04:35:45;101547.84;;;15.39;70.08
46534;BME280;32260;52.008;4.752;2023-05-11T04:38:11;101539.78;;;15.41;70.26
46534;BME280;32260;52.008;4.752;2023-05-11T04:40:37;101543.28;;;15.43;69.87
46534;BME280;32260;52.008;4.752;2023-05-11T04:43:03;101542.31;;;15.45;70.19
46534;BME280;32260;52.008;4.752;2023-05-11T04:45:29;101548.47;;;15.47;70.06
46534;BME280;32260;52.008;4.752;2023-05-11T04:47:55;101544.81;;;15.51;70.12
46534;BME280;32260;52.008;4.752;2023-05-11T04:50:21;101550.03;;;15.55;70.14
46534;BME280;32260;52.008;4.752;2023-05-11T04:52:47;101547.31;;;15.58;69.99
46534;BME280;32260;52.008;4.752;2023-05-11T04:55:13;101544.53;;;15.61;69.90
46534;BME280;32260;52.008;4.752;2023-05-11T04:57:41;101550.66;;;15.64;69.76
46534;BME280;32260;52.008;4.752;2023-05-11T05:00:07;101547.88;;;15.67;69.90
46534;BME280;32260;52.008;4.752;2023-05-11T05:02:34;101547.75;;;15.72;69.51
46534;BME280;32260;52.008;4.752;2023-05-11T05:05:00;101555.69;;;15.75;69.55
46534;BME280;32260;52.008;4.752;2023-05-11T05:07:26;101551.13;;;15.79;69.42
46534;BME280;32260;52.008;4.752;2023-05-11T05:09:52;101548.31;;;15.83;69.67
46534;BME280;32260;52.008;4.752;2023-05-11T05:12:18;101551.84;;;15.85;69.33
46534;BME280;32260;52.008;4.752;2023-05-11T05:14:45;101555.28;;;15.89;69.65
46534;BME280;32260;52.008;4.752;2023-05-11T05:17:11;101555.22;;;15.91;69.24
46534;BME280;32260;52.008;4.752;2023-05-11T05:19:37;101558.75;;;15.93;69.46
46534;BME280;32260;52.008;4.752;2023-05-11T05:22:03;101562.22;;;15.95;69.17
46534;BME280;32260;52.008;4.752;2023-05-11T05:24:30;101565.69;;;15.98;69.48
46534;BME280;32260;52.008;4.752;2023-05-11T05:26:56;101572.63;;;16.04;69.32
46534;BME280;32260;52.008;4.752;2023-05-11T05:29:22;101573.38;;;16.09;69.14
46534;BME280;32260;52.008;4.752;2023-05-11T05:31:48;101573.25;;;16.12;69.02
46534;BME280;32260;52.008;4.752;2023-05-11T05:34:14;101579.38;;;16.16;69.26
46534;BME280;32260;52.008;4.752;2023-05-11T05:36:40;101581.00;;;16.22;69.28
46534;BME280;32260;52.008;4.752;2023-05-11T05:39:06;101579.09;;;16.25;69.28
46534;BME280;32260;52.008;4.752;2023-05-11T05:41:36;101583.38;;;16.31;68.95
46534;BME280;32260;52.008;4.752;2023-05-11T05:44:03;101569.91;;;16.34;68.70
46534;BME280;32260;52.008;4.752;2023-05-11T05:46:29;101581.34;;;16.39;68.66
46534;BME280;32260;52.008;4.752;2023-05-11T05:48:55;101581.19;;;16.44;68.77
46534;BME280;32260;52.008;4.752;2023-05-11T05:51:21;101583.69;;;16.48;68.63
46534;BME280;32260;52.008;4.752;2023-05-11T05:53:47;101579.19;;;16.50;68.67
46534;BME280;32260;52.008;4.752;2023-05-11T05:56:14;101577.28;;;16.54;68.41
46534;BME280;32260;52.008;4.752;2023-05-11T05:58:40;101579.88;;;16.56;68.37
46534;BME280;32260;52.008;4.752;2023-05-11T06:01:08;101585.09;;;16.60;68.55
46534;BME280;32260;52.008;4.752;2023-05-11T06:03:34;101584.19;;;16.61;68.16
46534;BME280;32260;52.008;4.752;2023-05-11T06:06:00;101592.91;;;16.66;68.13
46534;BME280;32260;52.008;4.752;2023-05-11T06:08:27;101597.16;;;16.72;68.31
46534;BME280;32260;52.008;4.752;2023-05-11T06:10:53;101596.16;;;16.76;68.18
46534;BME280;32260;52.008;4.752;2023-05-11T06:13:19;101599.63;;;16.80;68.32
46534;BME280;32260;52.008;4.752;2023-05-11T06:15:45;101601.13;;;16.87;68.21
46534;BME280;32260;52.008;4.752;2023-05-11T06:18:11;101598.38;;;16.90;67.85
46534;BME280;32260;52.008;4.752;2023-05-11T06:20:37;101599.22;;;16.92;67.86
46534;BME280;32260;52.008;4.752;2023-05-11T06:23:03;101607.06;;;16.97;67.86
46534;BME280;32260;52.008;4.752;2023-05-11T06:25:32;101605.09;;;17.02;67.88
46534;BME280;32260;52.008;4.752;2023-05-11T06:27:58;101609.50;;;17.05;67.49
46534;BME280;32260;52.008;4.752;2023-05-11T06:30:24;101603.16;;;17.07;67.74
46534;BME280;32260;52.008;4.752;2023-05-11T06:32:50;101603.03;;;17.10;67.59
46534;BME280;32260;52.008;4.752;2023-05-11T06:35:17;101606.56;;;17.12;67.41
46534;BME280;32260;52.008;4.752;2023-05-11T06:37:43;101604.69;;;17.14;67.69
46534;BME280;32260;52.008;4.752;2023-05-11T06:40:09;101603.75;;;17.16;67.68
46534;BME280;32260;52.008;4.752;2023-05-11T06:42:35;101601.91;;;17.18;67.55
46534;BME280;32260;52.008;4.752;2023-05-11T06:45:01;101608.09;;;17.20;67.39
46534;BME280;32260;52.008;4.752;2023-05-11T06:47:27;101610.59;;;17.24;67.71
46534;BME280;32260;52.008;4.752;2023-05-11T06:49:54;101613.16;;;17.27;67.30
46534;BME280;32260;52.008;4.752;2023-05-11T06:52:20;101609.50;;;17.30;67.25
46534;BME280;32260;52.008;4.752;2023-05-11T06:54:46;101609.38;;;17.33;67.17
46534;BME280;32260;52.008;4.752;2023-05-11T06:57:12;101619.00;;;17.39;66.77
46534;BME280;32260;52.008;4.752;2023-05-11T06:59:38;101617.03;;;17.44;66.90
46534;BME280;32260;52.008;4.752;2023-05-11T07:02:04;101614.25;;;17.47;66.55
46534;BME280;32260;52.008;4.752;2023-05-11T07:04:31;101621.31;;;17.50;66.33
46534;BME280;32260;52.008;4.752;2023-05-11T07:06:57;101625.63;;;17.54;66.17
46534;BME280;32260;52.008;4.752;2023-05-11T07:09:23;101628.28;;;17.54;66.23
46534;BME280;32260;52.008;4.752;2023-05-11T07:11:49;101623.88;;;17.53;66.14
46534;BME280;32260;52.008;4.752;2023-05-11T07:14:17;101625.72;;;17.51;66.09
46534;BME280;32260;52.008;4.752;2023-05-11T07:16:43;101626.75;;;17.46;66.28
46534;BME280;32260;52.008;4.752;2023-05-11T07:19:09;101630.50;;;17.42;66.06
46534;BME280;32260;52.008;4.752;2023-05-11T07:21:36;101620.78;;;17.38;66.22
46534;BME280;32260;52.008;4.752;2023-05-11T07:24:02;101617.41;;;17.33;66.16
46534;BME280;32260;52.008;4.752;2023-05-11T07:26:29;101613.09;;;17.29;66.12
46534;BME280;32260;52.008;4.752;2023-05-11T07:28:55;101615.84;;;17.27;66.10
46534;BME280;32260;52.008;4.752;2023-05-11T07:31:21;101616.72;;;17.28;66.48
46534;BME280;32260;52.008;4.752;2023-05-11T07:33:47;101622.06;;;17.28;66.54
46534;BME280;32260;52.008;4.752;2023-05-11T07:36:13;101629.09;;;17.32;66.57
46534;BME280;32260;52.008;4.752;2023-05-11T07:38:39;101627.19;;;17.34;66.40
46534;BME280;32260;52.008;4.752;2023-05-11T07:41:06;101631.50;;;17.38;66.43
46534;BME280;32260;52.008;4.752;2023-05-11T07:43:32;101630.50;;;17.42;66.27
46534;BME280;32260;52.008;4.752;2023-05-11T07:45:58;101631.34;;;17.43;66.01
46534;BME280;32260;52.008;4.752;2023-05-11T07:48:24;101634.88;;;17.45;65.93
46534;BME280;32260;52.008;4.752;2023-05-11T07:50:50;101637.38;;;17.50;66.00
46534;BME280;32260;52.008;4.752;2023-05-11T07:53:16;101631.91;;;17.53;65.68
46534;BME280;32260;52.008;4.752;2023-05-11T07:55:42;101630.91;;;17.55;65.65
46534;BME280;32260;52.008;4.752;2023-05-11T07:58:08;101633.44;;;17.60;65.56
46534;BME280;32260;52.008;4.752;2023-05-11T08:00:34;101627.94;;;17.63;65.34
46534;BME280;32260;52.008;4.752;2023-05-11T08:03:03;101628.59;;;17.70;65.80
46534;BME280;32260;52.008;4.752;2023-05-11T08:05:29;101636.34;;;17.77;65.38
46534;BME280;32260;52.008;4.752;2023-05-11T08:07:58;101632.44;;;17.86;65.33
46534;BME280;32260;52.008;4.752;2023-05-11T08:10:24;101632.28;;;17.91;64.77
46534;BME280;32260;52.008;4.752;2023-05-11T08:12:50;101632.00;;;17.99;65.04
46534;BME280;32260;52.008;4.752;2023-05-11T08:15:16;101635.31;;;18.05;64.66
46534;BME280;32260;52.008;4.752;2023-05-11T08:17:42;101635.97;;;18.12;64.61
46534;BME280;32260;52.008;4.752;2023-05-11T08:20:11;101634.72;;;18.21;64.47
46534;BME280;32260;52.008;4.752;2023-05-11T08:22:37;101629.00;;;18.30;64.23
46534;BME280;32260;52.008;4.752;2023-05-11T08:25:03;101625.97;;;18.39;64.21
46534;BME280;32260;52.008;4.752;2023-05-11T08:27:30;101628.25;;;18.49;63.58
46534;BME280;32260;52.008;4.752;2023-05-11T08:29:56;101633.25;;;18.58;63.69
46534;BME280;32260;52.008;4.752;2023-05-11T08:32:22;101625.63;;;18.69;64.38
46534;BME280;32260;52.008;4.752;2023-05-11T08:34:48;101635.16;;;18.76;63.42
46534;BME280;32260;52.008;4.752;2023-05-11T08:37:14;101632.09;;;18.86;63.19
46534;BME280;32260;52.008;4.752;2023-05-11T08:39:40;101632.53;;;18.97;62.90
46534;BME280;32260;52.008;4.752;2023-05-11T08:42:07;101633.88;;;19.07;63.15
46534;BME280;32260;52.008;4.752;2023-05-11T08:44:34;101632.50;;;19.19;62.97
46534;BME280;32260;52.008;4.752;2023-05-11T08:47:03;101636.59;;;19.28;62.90
46534;BME280;32260;52.008;4.752;2023-05-11T08:49:31;101631.72;;;19.36;62.90
46534;BME280;32260;52.008;4.752;2023-05-11T08:51:57;101633.34;;;19.40;62.94
46534;BME280;32260;52.008;4.752;2023-05-11T08:54:24;101635.16;;;19.40;62.16
46534;BME280;32260;52.008;4.752;2023-05-11T08:56:50;101630.47;;;19.45;61.75
46534;BME280;32260;52.008;4.752;2023-05-11T08:59:17;101628.72;;;19.44;61.98
46534;BME280;32260;52.008;4.752;2023-05-11T09:01:45;101630.78;;;19.58;61.92
46534;BME280;32260;52.008;4.752;2023-05-11T09:04:12;101636.91;;;19.62;61.57
46534;BME280;32260;52.008;4.752;2023-05-11T09:06:40;101632.38;;;19.62;61.21
46534;BME280;32260;52.008;4.752;2023-05-11T09:09:06;101637.47;;;19.68;61.45
46534;BME280;32260;52.008;4.752;2023-05-11T09:11:33;101636.38;;;19.72;62.14
46534;BME280;32260;52.008;4.752;2023-05-11T09:14:05;101631.69;;;19.78;61.92
46534;BME280;32260;52.008;4.752;2023-05-11T09:16:31;101635.31;;;19.77;60.25
46534;BME280;32260;52.008;4.752;2023-05-11T09:18:59;101634.22;;;19.81;60.08
46534;BME280;32260;52.008;4.752;2023-05-11T09:21:28;101633.78;;;19.92;61.55
46534;BME280;32260;52.008;4.752;2023-05-11T09:23:55;101638.84;;;19.98;60.24
46534;BME280;32260;52.008;4.752;2023-05-11T09:26:24;101642.03;;;20.06;61.30
46534;BME280;32260;52.008;4.752;2023-05-11T09:28:57;101635.50;;;20.12;60.48
46534;BME280;32260;52.008;4.752;2023-05-11T09:31:43;101639.28;;;20.27;58.94
46534;BME280;32260;52.008;4.752;2023-05-11T09:34:18;101632.88;;;20.29;57.93
46534;BME280;32260;52.008;4.752;2023-05-11T09:42:21;101641.41;;;20.76;57.53
46534;BME280;32260;52.008;4.752;2023-05-11T09:44:48;101630.88;;;20.71;57.75
46534;BME280;32260;52.008;4.752;2023-05-11T09:47:15;101630.91;;;20.69;57.06
46534;BME280;32260;52.008;4.752;2023-05-11T09:49:43;101620.88;;;20.73;58.76
46534;BME280;32260;52.008;4.752;2023-05-11T09:52:11;101633.56;;;20.71;57.53
46534;BME280;32260;52.008;4.752;2023-05-11T09:54:47;101625.88;;;20.81;59.84
46534;BME280;32260;52.008;4.752;2023-05-11T10:00:00;101633.19;;;20.60;57.48
46534;BME280;32260;52.008;4.752;2023-05-11T10:02:28;101635.19;;;20.56;57.72
46534;BME280;32260;52.008;4.752;2023-05-11T10:04:57;101629.94;;;20.53;57.65
46534;BME280;32260;52.008;4.752;2023-05-11T10:07:26;101635.63;;;20.47;56.70
46534;BME280;32260;52.008;4.752;2023-05-11T10:09:55;101635.91;;;20.41;58.28
46534;BME280;32260;52.008;4.752;2023-05-11T10:12:23;101638.53;;;20.42;58.10
46534;BME280;32260;52.008;4.752;2023-05-11T10:14:53;101632.78;;;20.50;57.65
46534;BME280;32260;52.008;4.752;2023-05-11T10:17:20;101637.78;;;20.58;58.74
46534;BME280;32260;52.008;4.752;2023-05-11T10:19:49;101636.28;;;20.69;57.91
46534;BME280;32260;52.008;4.752;2023-05-11T10:22:16;101639.66;;;20.75;55.86
46534;BME280;32260;52.008;4.752;2023-05-11T10:24:43;101623.13;;;20.82;56.35
46534;BME280;32260;52.008;4.752;2023-05-11T10:27:14;101629.88;;;20.91;56.66
46534;BME280;32260;52.008;4.752;2023-05-11T10:29:46;101625.56;;;21.05;57.17
46534;BME280;32260;52.008;4.752;2023-05-11T10:32:15;101631.44;;;21.13;56.51
46534;BME280;32260;52.008;4.752;2023-05-11T10:34:43;101627.47;;;21.20;55.60
46534;BME280;32260;52.008;4.752;2023-05-11T10:37:10;101631.66;;;21.26;56.27
46534;BME280;32260;52.008;4.752;2023-05-11T10:39:38;101630.47;;;21.31;56.73
46534;BME280;32260;52.008;4.752;2023-05-11T10:53:37;101620.91;;;21.08;56.34
46534;BME280;32260;52.008;4.752;2023-05-11T10:56:10;101628.66;;;20.97;55.73
46534;BME280;32260;52.008;4.752;2023-05-11T11:01:44;101627.75;;;20.61;57.06
46534;BME280;32260;52.008;4.752;2023-05-11T11:04:12;101626.00;;;20.60;56.90
46534;BME280;32260;52.008;4.752;2023-05-11T11:06:41;101632.00;;;20.65;56.81
46534;BME280;32260;52.008;4.752;2023-05-11T11:09:09;101630.13;;;20.67;56.51
46534;BME280;32260;52.008;4.752;2023-05-11T11:11:39;101631.84;;;20.68;56.89
46534;BME280;32260;52.008;4.752;2023-05-11T11:14:08;101632.00;;;20.65;56.24
46534;BME280;32260;52.008;4.752;2023-05-11T11:16:36;101633.13;;;20.61;56.47
46534;BME280;32260;52.008;4.752;2023-05-11T11:25:49;101627.84;;;20.41;55.38
46534;BME280;32260;52.008;4.752;2023-05-11T11:28:01;101635.09;;;20.39;56.59
46534;BME280;32260;52.008;4.752;2023-05-11T11:30:28;101627.34;;;20.32;56.48
46534;BME280;32260;52.008;4.752;2023-05-11T11:38:18;101629.06;;;19.76;58.01
46534;BME280;32260;52.008;4.752;2023-05-11T11:40:47;101632.81;;;19.53;58.55
46534;BME280;32260;52.008;4.752;2023-05-11T11:43:27;101635.22;;;19.38;59.18
46534;BME280;32260;52.008;4.752;2023-05-11T11:48:41;101628.75;;;19.03;59.99
46534;BME280;32260;52.008;4.752;2023-05-11T11:51:09;101633.97;;;18.84;60.00
46534;BME280;32260;52.008;4.752;2023-05-11T12:01:34;101636.16;;;17.58;62.65
46534;BME280;32260;52.008;4.752;2023-05-11T12:06:55;101652.56;;;17.24;63.84
46534;BME280;32260;52.008;4.752;2023-05-11T12:09:22;101661.31;;;17.04;64.50
46534;BME280;32260;52.008;4.752;2023-05-11T12:11:49;101662.56;;;16.92;65.04
46534;BME280;32260;52.008;4.752;2023-05-11T12:14:16;101672.69;;;16.82;65.07
46534;BME280;32260;52.008;4.752;2023-05-11T12:16:42;101670.25;;;16.74;65.62
46534;BME280;32260;52.008;4.752;2023-05-11T12:19:24;101666.09;;;16.65;65.61
46534;BME280;32260;52.008;4.752;2023-05-11T12:21:50;101667.19;;;16.58;65.74
46534;BME280;32260;52.008;4.752;2023-05-11T12:24:17;101666.34;;;16.58;66.11
46534;BME280;32260;52.008;4.752;2023-05-11T12:26:43;101662.88;;;16.54;66.21
46534;BME280;32260;52.008;4.752;2023-05-11T12:29:11;101653.94;;;16.55;65.85
46534;BME280;32260;52.008;4.752;2023-05-11T12:31:42;101660.16;;;16.56;66.29
46534;BME280;32260;52.008;4.752;2023-05-11T12:34:17;101664.44;;;16.61;66.86
46534;BME280;32260;52.008;4.752;2023-05-11T12:36:46;101672.53;;;16.60;67.91
46534;BME280;32260;52.008;4.752;2023-05-11T12:39:27;101669.88;;;16.58;67.55
46534;BME280;32260;52.008;4.752;2023-05-11T12:41:55;101668.41;;;16.48;67.57
46534;BME280;32260;52.008;4.752;2023-05-11T12:44:23;101671.16;;;16.46;67.39
46534;BME280;32260;52.008;4.752;2023-05-11T12:46:50;101676.50;;;16.46;67.87
46534;BME280;32260;52.008;4.752;2023-05-11T12:49:21;101672.91;;;16.47;67.55
46534;BME280;32260;52.008;4.752;2023-05-11T12:52:04;101671.81;;;16.53;67.30
46534;BME280;32260;52.008;4.752;2023-05-11T12:54:39;101678.06;;;16.54;68.49
46534;BME280;32260;52.008;4.752;2023-05-11T12:57:07;101689.63;;;16.54;68.11
46534;BME280;32260;52.008;4.752;2023-05-11T12:59:46;101679.78;;;16.55;68.02
46534;BME280;32260;52.008;4.752;2023-05-11T13:02:16;101683.31;;;16.57;68.22
46534;BME280;32260;52.008;4.752;2023-05-11T13:04:44;101673.53;;;16.56;68.15
46534;BME280;32260;52.008;4.752;2023-05-11T13:07:13;101676.16;;;16.57;68.16
46534;BME280;32260;52.008;4.752;2023-05-11T13:09:40;101676.13;;;16.59;68.29
46534;BME280;32260;52.008;4.752;2023-05-11T13:12:10;101676.00;;;16.62;69.12
46534;BME280;32260;52.008;4.752;2023-05-11T13:14:37;101682.06;;;16.67;68.70
46534;BME280;32260;52.008;4.752;2023-05-11T13:17:03;101678.53;;;16.66;67.87
46534;BME280;32260;52.008;4.752;2023-05-11T13:19:30;101675.91;;;16.65;68.49
46534;BME280;32260;52.008;4.752;2023-05-11T13:21:58;101676.91;;;16.62;68.63
46534;BME280;32260;52.008;4.752;2023-05-11T13:24:25;101678.63;;;16.63;68.80
46534;BME280;32260;52.008;4.752;2023-05-11T13:26:52;101678.41;;;16.71;69.55
46534;BME280;32260;52.008;4.752;2023-05-11T13:29:18;101680.88;;;16.77;69.72
46534;BME280;32260;52.008;4.752;2023-05-11T13:31:46;101676.06;;;16.87;69.00
46534;BME280;32260;52.008;4.752;2023-05-11T13:34:12;101680.38;;;16.93;69.08
46534;BME280;32260;52.008;4.752;2023-05-11T13:36:39;101674.91;;;16.97;69.18
46534;BME280;32260;52.008;4.752;2023-05-11T13:39:05;101665.66;;;17.06;69.64
46534;BME280;32260;52.008;4.752;2023-05-11T13:41:32;101672.50;;;17.15;69.39
46534;BME280;32260;52.008;4.752;2023-05-11T13:44:01;101666.88;;;17.23;69.00